sensor_id;sensor_type;location;lat;lon;timestamp;P1;durP1;ratioP1;P2;durP2;ratioP2
4992;SDS011;2514;53.524;10.166;2022-12-07T00:01:32;0.80;;;0.50;;
4992;SDS011;2514;53.524;10.166;2022-12-07T00:04:05;5.07;;;2.00;;
4992;SDS011;2514;53.524;10.166;2022-12-07T00:06:34;1.90;;;1.00;;
4992;SDS011;2514;53.524;10.166;2022-12-07T00:09:04;2.30;;;1.50;;
4992;SDS011;2514;53.524;10.166;2022-12-07T00:11:33;1.40;;;1.30;;
4992;SDS011;2514;53.524;10.166;2022-12-07T00:14:01;3.17;;;2.92;;
4992;SDS011;2514;53.524;10.166;2022-12-07T00:16:31;3.58;;;2.50;;
4992;SDS011;2514;53.524;10.166;2022-12-07T00:18:59;4.03;;;2.97;;
4992;SDS011;2514;53.524;10.166;2022-12-07T00:21:28;3.10;;;2.80;;
4992;SDS011;2514;53.524;10.166;2022-12-07T00:23:57;4.00;;;3.30;;
4992;SDS011;2514;53.524;10.166;2022-12-07T00:26:25;8.13;;;3.60;;
4992;SDS011;2514;53.524;10.166;2022-12-07T00:28:54;10.43;;;3.42;;
4992;SDS011;2514;53.524;10.166;2022-12-07T00:31:23;3.00;;;2.20;;
4992;SDS011;2514;53.524;10.166;2022-12-07T00:33:56;2.65;;;1.50;;
4992;SDS011;2514;53.524;10.166;2022-12-07T00:36:23;4.97;;;2.33;;
4992;SDS011;2514;53.524;10.166;2022-12-07T00:38:53;2.45;;;1.63;;
4992;SDS011;2514;53.524;10.166;2022-12-07T00:41:21;5.63;;;3.78;;
4992;SDS011;2514;53.524;10.166;2022-12-07T00:43:50;4.28;;;3.88;;
4992;SDS011;2514;53.524;10.166;2022-12-07T00:46:18;4.07;;;3.17;;
4992;SDS011;2514;53.524;10.166;2022-12-07T00:48:46;5.70;;;3.70;;
4992;SDS011;2514;53.524;10.166;2022-12-07T00:51:15;6.63;;;5.00;;
4992;SDS011;2514;53.524;10.166;2022-12-07T00:53:44;3.80;;;2.07;;
4992;SDS011;2514;53.524;10.166;2022-12-07T00:56:14;5.82;;;3.70;;
4992;SDS011;2514;53.524;10.166;2022-12-07T00:58:43;4.60;;;3.50;;
4992;SDS011;2514;53.524;10.166;2022-12-07T01:01:10;5.80;;;3.40;;
4992;SDS011;2514;53.524;10.166;2022-12-07T01:03:37;4.28;;;3.15;;
4992;SDS011;2514;53.524;10.166;2022-12-07T01:06:04;3.00;;;1.83;;
4992;SDS011;2514;53.524;10.166;2022-12-07T01:08:32;5.90;;;5.45;;
4992;SDS011;2514;53.524;10.166;2022-12-07T01:11:00;3.60;;;1.90;;
4992;SDS011;2514;53.524;10.166;2022-12-07T01:13:31;3.95;;;1.90;;
4992;SDS011;2514;53.524;10.166;2022-12-07T01:16:00;7.10;;;2.72;;
4992;SDS011;2514;53.524;10.166;2022-12-07T01:18:29;6.25;;;3.70;;
4992;SDS011;2514;53.524;10.166;2022-12-07T01:20:59;5.32;;;3.67;;
4992;SDS011;2514;53.524;10.166;2022-12-07T01:23:27;4.85;;;3.17;;
4992;SDS011;2514;53.524;10.166;2022-12-07T01:25:55;4.40;;;4.00;;
4992;SDS011;2514;53.524;10.166;2022-12-07T01:28:22;5.90;;;4.20;;
4992;SDS011;2514;53.524;10.166;2022-12-07T01:30:58;3.10;;;2.50;;
4992;SDS011;2514;53.524;10.166;2022-12-07T01:33:27;1.80;;;1.70;;
4992;SDS011;2514;53.524;10.166;2022-12-07T01:36:00;4.57;;;3.40;;
4992;SDS011;2514;53.524;10.166;2022-12-07T01:38:29;2.40;;;2.20;;
4992;SDS011;2514;53.524;10.166;2022-12-07T01:40:57;4.67;;;1.87;;
4992;SDS011;2514;53.524;10.166;2022-12-07T01:43:26;3.00;;;2.50;;
4992;SDS011;2514;53.524;10.166;2022-12-07T01:45:55;4.13;;;3.30;;
4992;SDS011;2514;53.524;10.166;2022-12-07T01:48:25;4.80;;;2.90;;
4992;SDS011;2514;53.524;10.166;2022-12-07T01:50:55;3.70;;;3.40;;
4992;SDS011;2514;53.524;10.166;2022-12-07T01:53:27;3.78;;;3.42;;
4992;SDS011;2514;53.524;10.166;2022-12-07T01:55:55;3.75;;;3.00;;
4992;SDS011;2514;53.524;10.166;2022-12-07T01:58:24;6.05;;;3.03;;
4992;SDS011;2514;53.524;10.166;2022-12-07T02:00:52;3.60;;;3.05;;
4992;SDS011;2514;53.524;10.166;2022-12-07T02:03:21;5.75;;;3.50;;
4992;SDS011;2514;53.524;10.166;2022-12-07T02:05:53;12.10;;;5.43;;
4992;SDS011;2514;53.524;10.166;2022-12-07T02:08:21;11.07;;;4.50;;
4992;SDS011;2514;53.524;10.166;2022-12-07T02:10:48;6.80;;;4.45;;
4992;SDS011;2514;53.524;10.166;2022-12-07T02:13:16;4.05;;;3.25;;
4992;SDS011;2514;53.524;10.166;2022-12-07T02:15:50;10.70;;;3.60;;
4992;SDS011;2514;53.524;10.166;2022-12-07T02:18:41;7.28;;;3.40;;
4992;SDS011;2514;53.524;10.166;2022-12-07T02:21:24;3.70;;;2.43;;
4992;SDS011;2514;53.524;10.166;2022-12-07T02:27:07;7.95;;;2.72;;
4992;SDS011;2514;53.524;10.166;2022-12-07T02:30:05;5.37;;;4.20;;
4992;SDS011;2514;53.524;10.166;2022-12-07T02:32:40;6.90;;;3.50;;
4992;SDS011;2514;53.524;10.166;2022-12-07T02:35:17;7.97;;;3.85;;
4992;SDS011;2514;53.524;10.166;2022-12-07T02:37:48;5.68;;;3.53;;
4992;SDS011;2514;53.524;10.166;2022-12-07T02:40:27;6.13;;;4.25;;
4992;SDS011;2514;53.524;10.166;2022-12-07T02:43:02;6.95;;;3.63;;
4992;SDS011;2514;53.524;10.166;2022-12-07T02:45:35;6.00;;;4.15;;
4992;SDS011;2514;53.524;10.166;2022-12-07T02:48:05;5.38;;;2.33;;
4992;SDS011;2514;53.524;10.166;2022-12-07T02:50:35;6.75;;;2.50;;
4992;SDS011;2514;53.524;10.166;2022-12-07T02:53:02;11.85;;;4.20;;
4992;SDS011;2514;53.524;10.166;2022-12-07T02:55:30;3.85;;;3.28;;
4992;SDS011;2514;53.524;10.166;2022-12-07T02:58:06;6.30;;;3.65;;
4992;SDS011;2514;53.524;10.166;2022-12-07T03:00:54;5.13;;;2.70;;
4992;SDS011;2514;53.524;10.166;2022-12-07T03:03:32;4.07;;;2.03;;
4992;SDS011;2514;53.524;10.166;2022-12-07T03:06:07;4.30;;;2.72;;
4992;SDS011;2514;53.524;10.166;2022-12-07T03:08:49;2.40;;;1.88;;
4992;SDS011;2514;53.524;10.166;2022-12-07T03:11:24;4.90;;;2.70;;
4992;SDS011;2514;53.524;10.166;2022-12-07T03:14:04;2.07;;;1.70;;
4992;SDS011;2514;53.524;10.166;2022-12-07T03:16:41;3.40;;;2.30;;
4992;SDS011;2514;53.524;10.166;2022-12-07T03:19:14;4.45;;;1.85;;
4992;SDS011;2514;53.524;10.166;2022-12-07T03:21:45;4.50;;;1.80;;
4992;SDS011;2514;53.524;10.166;2022-12-07T03:24:17;2.65;;;1.30;;
4992;SDS011;2514;53.524;10.166;2022-12-07T03:26:48;1.73;;;1.42;;
4992;SDS011;2514;53.524;10.166;2022-12-07T03:29:19;0.98;;;0.80;;
4992;SDS011;2514;53.524;10.166;2022-12-07T03:31:54;3.33;;;1.70;;
4992;SDS011;2514;53.524;10.166;2022-12-07T03:34:27;1.70;;;1.10;;
4992;SDS011;2514;53.524;10.166;2022-12-07T03:37:00;2.30;;;1.10;;
4992;SDS011;2514;53.524;10.166;2022-12-07T03:39:33;4.00;;;1.67;;
4992;SDS011;2514;53.524;10.166;2022-12-07T03:42:07;4.07;;;1.50;;
4992;SDS011;2514;53.524;10.166;2022-12-07T03:44:36;1.00;;;0.80;;
4992;SDS011;2514;53.524;10.166;2022-12-07T03:47:06;3.50;;;1.40;;
4992;SDS011;2514;53.524;10.166;2022-12-07T03:49:40;1.42;;;1.15;;
4992;SDS011;2514;53.524;10.166;2022-12-07T03:52:12;1.77;;;1.00;;
4992;SDS011;2514;53.524;10.166;2022-12-07T03:54:49;0.80;;;0.60;;
4992;SDS011;2514;53.524;10.166;2022-12-07T03:57:23;2.38;;;1.30;;
4992;SDS011;2514;53.524;10.166;2022-12-07T03:59:53;1.40;;;1.20;;
4992;SDS011;2514;53.524;10.166;2022-12-07T04:02:23;1.20;;;1.00;;
4992;SDS011;2514;53.524;10.166;2022-12-07T04:04:53;0.80;;;0.60;;
4992;SDS011;2514;53.524;10.166;2022-12-07T04:07:20;2.03;;;1.00;;
4992;SDS011;2514;53.524;10.166;2022-12-07T04:09:47;2.60;;;1.13;;
4992;SDS011;2514;53.524;10.166;2022-12-07T04:12:14;2.30;;;1.50;;
4992;SDS011;2514;53.524;10.166;2022-12-07T04:14:41;0.80;;;0.80;;
4992;SDS011;2514;53.524;10.166;2022-12-07T04:17:08;0.90;;;0.60;;
4992;SDS011;2514;53.524;10.166;2022-12-07T04:19:37;1.73;;;0.60;;
4992;SDS011;2514;53.524;10.166;2022-12-07T04:22:04;4.10;;;1.10;;
4992;SDS011;2514;53.524;10.166;2022-12-07T04:24:32;1.20;;;0.70;;
4992;SDS011;2514;53.524;10.166;2022-12-07T04:26:59;1.48;;;1.05;;
4992;SDS011;2514;53.524;10.166;2022-12-07T04:29:27;1.30;;;0.60;;
4992;SDS011;2514;53.524;10.166;2022-12-07T04:31:54;1.00;;;0.60;;
4992;SDS011;2514;53.524;10.166;2022-12-07T04:34:21;5.90;;;0.80;;
4992;SDS011;2514;53.524;10.166;2022-12-07T04:36:49;0.90;;;0.70;;
4992;SDS011;2514;53.524;10.166;2022-12-07T04:39:18;1.08;;;0.98;;
4992;SDS011;2514;53.524;10.166;2022-12-07T04:41:48;1.27;;;0.70;;
4992;SDS011;2514;53.524;10.166;2022-12-07T04:44:16;2.13;;;0.85;;
4992;SDS011;2514;53.524;10.166;2022-12-07T04:46:43;1.00;;;0.80;;
4992;SDS011;2514;53.524;10.166;2022-12-07T04:49:11;1.00;;;0.50;;
4992;SDS011;2514;53.524;10.166;2022-12-07T04:51:40;1.10;;;1.00;;
4992;SDS011;2514;53.524;10.166;2022-12-07T04:54:09;0.90;;;0.70;;
4992;SDS011;2514;53.524;10.166;2022-12-07T04:56:37;2.85;;;0.93;;
4992;SDS011;2514;53.524;10.166;2022-12-07T04:59:04;1.20;;;0.90;;
4992;SDS011;2514;53.524;10.166;2022-12-07T05:01:32;1.20;;;0.90;;
4992;SDS011;2514;53.524;10.166;2022-12-07T05:04:00;1.20;;;0.60;;
4992;SDS011;2514;53.524;10.166;2022-12-07T05:06:27;1.30;;;1.00;;
4992;SDS011;2514;53.524;10.166;2022-12-07T05:08:55;1.40;;;1.25;;
4992;SDS011;2514;53.524;10.166;2022-12-07T05:11:23;1.00;;;0.80;;
4992;SDS011;2514;53.524;10.166;2022-12-07T05:14:07;1.60;;;1.10;;
4992;SDS011;2514;53.524;10.166;2022-12-07T05:16:37;1.70;;;1.60;;
4992;SDS011;2514;53.524;10.166;2022-12-07T05:19:05;1.00;;;0.50;;
4992;SDS011;2514;53.524;10.166;2022-12-07T05:21:33;1.38;;;1.27;;
4992;SDS011;2514;53.524;10.166;2022-12-07T05:24:00;1.40;;;0.80;;
4992;SDS011;2514;53.524;10.166;2022-12-07T05:26:29;0.90;;;0.80;;
4992;SDS011;2514;53.524;10.166;2022-12-07T05:28:57;1.40;;;0.80;;
4992;SDS011;2514;53.524;10.166;2022-12-07T05:31:25;3.90;;;0.60;;
4992;SDS011;2514;53.524;10.166;2022-12-07T05:33:52;1.10;;;0.70;;
4992;SDS011;2514;53.524;10.166;2022-12-07T05:36:20;1.38;;;0.75;;
4992;SDS011;2514;53.524;10.166;2022-12-07T05:38:47;1.60;;;0.90;;
4992;SDS011;2514;53.524;10.166;2022-12-07T05:41:15;3.50;;;1.50;;
4992;SDS011;2514;53.524;10.166;2022-12-07T05:44:02;0.90;;;0.60;;
4992;SDS011;2514;53.524;10.166;2022-12-07T05:46:29;0.90;;;0.50;;
4992;SDS011;2514;53.524;10.166;2022-12-07T05:48:56;1.60;;;0.70;;
4992;SDS011;2514;53.524;10.166;2022-12-07T05:51:23;0.83;;;0.53;;
4992;SDS011;2514;53.524;10.166;2022-12-07T05:53:50;1.15;;;1.05;;
4992;SDS011;2514;53.524;10.166;2022-12-07T05:56:17;0.80;;;0.50;;
4992;SDS011;2514;53.524;10.166;2022-12-07T05:58:44;2.72;;;1.35;;
4992;SDS011;2514;53.524;10.166;2022-12-07T06:01:31;0.70;;;0.40;;
4992;SDS011;2514;53.524;10.166;2022-12-07T06:03:58;0.70;;;0.40;;
4992;SDS011;2514;53.524;10.166;2022-12-07T06:06:25;1.00;;;0.70;;
4992;SDS011;2514;53.524;10.166;2022-12-07T06:08:52;1.10;;;1.00;;
4992;SDS011;2514;53.524;10.166;2022-12-07T06:11:19;1.80;;;0.80;;
4992;SDS011;2514;53.524;10.166;2022-12-07T06:14:03;0.80;;;0.60;;
4992;SDS011;2514;53.524;10.166;2022-12-07T06:16:32;1.20;;;1.08;;
4992;SDS011;2514;53.524;10.166;2022-12-07T06:18:59;1.40;;;0.90;;
4992;SDS011;2514;53.524;10.166;2022-12-07T06:21:26;0.80;;;0.50;;
4992;SDS011;2514;53.524;10.166;2022-12-07T06:23:53;1.00;;;0.90;;
4992;SDS011;2514;53.524;10.166;2022-12-07T06:26:21;1.58;;;1.48;;
4992;SDS011;2514;53.524;10.166;2022-12-07T06:28:48;1.70;;;1.03;;
4992;SDS011;2514;53.524;10.166;2022-12-07T06:31:15;0.70;;;0.40;;
4992;SDS011;2514;53.524;10.166;2022-12-07T06:33:43;0.90;;;0.70;;
4992;SDS011;2514;53.524;10.166;2022-12-07T06:36:10;1.90;;;1.60;;
4992;SDS011;2514;53.524;10.166;2022-12-07T06:38:38;1.30;;;1.20;;
4992;SDS011;2514;53.524;10.166;2022-12-07T06:41:05;0.95;;;0.80;;
4992;SDS011;2514;53.524;10.166;2022-12-07T06:43:32;0.90;;;0.70;;
4992;SDS011;2514;53.524;10.166;2022-12-07T06:45:59;1.10;;;0.80;;
4992;SDS011;2514;53.524;10.166;2022-12-07T06:48:26;0.90;;;0.73;;
4992;SDS011;2514;53.524;10.166;2022-12-07T06:50:55;1.23;;;0.70;;
4992;SDS011;2514;53.524;10.166;2022-12-07T06:53:22;0.90;;;0.70;;
4992;SDS011;2514;53.524;10.166;2022-12-07T06:55:49;0.80;;;0.60;;
4992;SDS011;2514;53.524;10.166;2022-12-07T06:58:16;0.80;;;0.60;;
4992;SDS011;2514;53.524;10.166;2022-12-07T07:00:44;0.70;;;0.40;;
4992;SDS011;2514;53.524;10.166;2022-12-07T07:03:11;1.35;;;0.95;;
4992;SDS011;2514;53.524;10.166;2022-12-07T07:05:38;0.70;;;0.40;;
4992;SDS011;2514;53.524;10.166;2022-12-07T07:08:07;1.90;;;1.80;;
4992;SDS011;2514;53.524;10.166;2022-12-07T07:10:34;2.38;;;1.48;;
4992;SDS011;2514;53.524;10.166;2022-12-07T07:13:01;1.65;;;1.50;;
4992;SDS011;2514;53.524;10.166;2022-12-07T07:15:28;5.70;;;1.60;;
4992;SDS011;2514;53.524;10.166;2022-12-07T07:17:56;0.85;;;0.60;;
4992;SDS011;2514;53.524;10.166;2022-12-07T07:20:23;1.25;;;1.15;;
4992;SDS011;2514;53.524;10.166;2022-12-07T07:22:50;1.60;;;1.40;;
4992;SDS011;2514;53.524;10.166;2022-12-07T07:25:18;3.33;;;1.95;;
4992;SDS011;2514;53.524;10.166;2022-12-07T07:27:45;1.30;;;1.20;;
4992;SDS011;2514;53.524;10.166;2022-12-07T07:30:12;3.00;;;1.90;;
4992;SDS011;2514;53.524;10.166;2022-12-07T07:32:40;0.70;;;0.40;;
4992;SDS011;2514;53.524;10.166;2022-12-07T07:35:08;1.80;;;1.50;;
4992;SDS011;2514;53.524;10.166;2022-12-07T07:37:35;1.50;;;1.10;;
4992;SDS011;2514;53.524;10.166;2022-12-07T07:40:03;0.90;;;0.70;;
4992;SDS011;2514;53.524;10.166;2022-12-07T07:42:37;3.20;;;1.02;;
4992;SDS011;2514;53.524;10.166;2022-12-07T07:45:09;2.60;;;0.70;;
4992;SDS011;2514;53.524;10.166;2022-12-07T07:47:36;0.80;;;0.50;;
4992;SDS011;2514;53.524;10.166;2022-12-07T07:50:04;0.95;;;0.70;;
4992;SDS011;2514;53.524;10.166;2022-12-07T07:52:32;3.10;;;1.40;;
4992;SDS011;2514;53.524;10.166;2022-12-07T07:54:59;1.52;;;0.80;;
4992;SDS011;2514;53.524;10.166;2022-12-07T07:57:26;1.40;;;1.30;;
4992;SDS011;2514;53.524;10.166;2022-12-07T07:59:55;1.30;;;0.80;;
4992;SDS011;2514;53.524;10.166;2022-12-07T08:02:22;1.50;;;0.97;;
4992;SDS011;2514;53.524;10.166;2022-12-07T08:04:49;1.88;;;1.10;;
4992;SDS011;2514;53.524;10.166;2022-12-07T08:07:16;1.27;;;1.17;;
4992;SDS011;2514;53.524;10.166;2022-12-07T08:09:43;0.90;;;0.50;;
4992;SDS011;2514;53.524;10.166;2022-12-07T08:12:10;0.80;;;0.70;;
4992;SDS011;2514;53.524;10.166;2022-12-07T08:14:37;2.27;;;0.90;;
4992;SDS011;2514;53.524;10.166;2022-12-07T08:17:06;1.10;;;0.80;;
4992;SDS011;2514;53.524;10.166;2022-12-07T08:19:33;1.00;;;0.60;;
4992;SDS011;2514;53.524;10.166;2022-12-07T08:22:00;1.30;;;0.60;;
4992;SDS011;2514;53.524;10.166;2022-12-07T08:24:27;0.80;;;0.50;;
4992;SDS011;2514;53.524;10.166;2022-12-07T08:26:54;2.00;;;1.50;;
4992;SDS011;2514;53.524;10.166;2022-12-07T08:29:21;0.93;;;0.63;;
4992;SDS011;2514;53.524;10.166;2022-12-07T08:31:48;0.70;;;0.40;;
4992;SDS011;2514;53.524;10.166;2022-12-07T08:34:16;0.80;;;0.50;;
4992;SDS011;2514;53.524;10.166;2022-12-07T08:36:44;0.90;;;0.82;;
4992;SDS011;2514;53.524;10.166;2022-12-07T08:39:11;0.70;;;0.40;;
4992;SDS011;2514;53.524;10.166;2022-12-07T08:41:38;1.20;;;0.68;;
4992;SDS011;2514;53.524;10.166;2022-12-07T08:44:05;1.10;;;1.00;;
4992;SDS011;2514;53.524;10.166;2022-12-07T08:46:32;0.80;;;0.60;;
4992;SDS011;2514;53.524;10.166;2022-12-07T08:49:04;0.80;;;0.50;;
4992;SDS011;2514;53.524;10.166;2022-12-07T08:51:36;0.82;;;0.65;;
4992;SDS011;2514;53.524;10.166;2022-12-07T08:54:04;0.90;;;0.80;;
4992;SDS011;2514;53.524;10.166;2022-12-07T08:56:35;1.70;;;1.40;;
4992;SDS011;2514;53.524;10.166;2022-12-07T08:59:02;2.20;;;0.70;;
4992;SDS011;2514;53.524;10.166;2022-12-07T09:01:30;0.80;;;0.50;;
4992;SDS011;2514;53.524;10.166;2022-12-07T09:03:57;3.03;;;0.52;;
4992;SDS011;2514;53.524;10.166;2022-12-07T09:06:24;2.10;;;1.30;;
4992;SDS011;2514;53.524;10.166;2022-12-07T09:08:54;0.80;;;0.60;;
4992;SDS011;2514;53.524;10.166;2022-12-07T09:11:24;1.20;;;0.93;;
4992;SDS011;2514;53.524;10.166;2022-12-07T09:13:51;0.80;;;0.50;;
4992;SDS011;2514;53.524;10.166;2022-12-07T09:16:19;0.80;;;0.60;;
4992;SDS011;2514;53.524;10.166;2022-12-07T09:18:46;0.90;;;0.80;;
4992;SDS011;2514;53.524;10.166;2022-12-07T09:21:13;0.70;;;0.40;;
4992;SDS011;2514;53.524;10.166;2022-12-07T09:23:40;1.80;;;0.68;;
4992;SDS011;2514;53.524;10.166;2022-12-07T09:26:09;0.90;;;0.60;;
4992;SDS011;2514;53.524;10.166;2022-12-07T09:28:37;2.90;;;1.20;;
4992;SDS011;2514;53.524;10.166;2022-12-07T09:31:04;0.83;;;0.70;;
4992;SDS011;2514;53.524;10.166;2022-12-07T09:33:32;2.50;;;0.90;;
4992;SDS011;2514;53.524;10.166;2022-12-07T09:35:59;0.90;;;0.82;;
4992;SDS011;2514;53.524;10.166;2022-12-07T09:38:26;8.07;;;1.50;;
4992;SDS011;2514;53.524;10.166;2022-12-07T09:40:54;7.07;;;1.67;;
4992;SDS011;2514;53.524;10.166;2022-12-07T09:43:24;3.30;;;0.80;;
4992;SDS011;2514;53.524;10.166;2022-12-07T09:45:52;1.63;;;1.00;;
4992;SDS011;2514;53.524;10.166;2022-12-07T09:48:22;2.60;;;1.30;;
4992;SDS011;2514;53.524;10.166;2022-12-07T09:50:56;5.57;;;1.30;;
4992;SDS011;2514;53.524;10.166;2022-12-07T09:53:28;1.30;;;0.60;;
4992;SDS011;2514;53.524;10.166;2022-12-07T09:55:59;5.53;;;0.90;;
4992;SDS011;2514;53.524;10.166;2022-12-07T09:58:30;1.40;;;1.30;;
4992;SDS011;2514;53.524;10.166;2022-12-07T10:00:59;2.60;;;1.00;;
4992;SDS011;2514;53.524;10.166;2022-12-07T10:03:40;3.30;;;0.80;;
4992;SDS011;2514;53.524;10.166;2022-12-07T10:06:13;1.40;;;1.10;;
4992;SDS011;2514;53.524;10.166;2022-12-07T10:08:40;1.95;;;1.45;;
4992;SDS011;2514;53.524;10.166;2022-12-07T10:11:08;5.30;;;1.60;;
4992;SDS011;2514;53.524;10.166;2022-12-07T10:13:38;3.80;;;1.60;;
4992;SDS011;2514;53.524;10.166;2022-12-07T10:16:24;1.90;;;1.20;;
4992;SDS011;2514;53.524;10.166;2022-12-07T10:19:17;1.70;;;1.10;;
4992;SDS011;2514;53.524;10.166;2022-12-07T10:21:59;1.08;;;0.75;;
4992;SDS011;2514;53.524;10.166;2022-12-07T10:24:35;2.53;;;1.52;;
4992;SDS011;2514;53.524;10.166;2022-12-07T10:27:04;3.00;;;0.98;;
4992;SDS011;2514;53.524;10.166;2022-12-07T10:29:47;1.20;;;0.63;;
4992;SDS011;2514;53.524;10.166;2022-12-07T10:32:31;1.10;;;0.63;;
4992;SDS011;2514;53.524;10.166;2022-12-07T10:35:19;0.80;;;0.65;;
4992;SDS011;2514;53.524;10.166;2022-12-07T10:37:51;4.85;;;1.17;;
4992;SDS011;2514;53.524;10.166;2022-12-07T10:40:24;1.55;;;1.02;;
4992;SDS011;2514;53.524;10.166;2022-12-07T10:43:05;1.48;;;1.30;;
4992;SDS011;2514;53.524;10.166;2022-12-07T10:46:00;0.80;;;0.60;;
4992;SDS011;2514;53.524;10.166;2022-12-07T10:48:54;1.20;;;1.10;;
4992;SDS011;2514;53.524;10.166;2022-12-07T10:51:32;0.80;;;0.60;;
4992;SDS011;2514;53.524;10.166;2022-12-07T10:54:09;1.08;;;0.88;;
4992;SDS011;2514;53.524;10.166;2022-12-07T10:56:49;1.00;;;0.90;;
4992;SDS011;2514;53.524;10.166;2022-12-07T10:59:33;5.05;;;1.10;;
4992;SDS011;2514;53.524;10.166;2022-12-07T11:02:49;1.10;;;0.77;;
4992;SDS011;2514;53.524;10.166;2022-12-07T11:05:32;1.67;;;0.50;;
4992;SDS011;2514;53.524;10.166;2022-12-07T11:08:09;3.80;;;0.60;;
4992;SDS011;2514;53.524;10.166;2022-12-07T11:10:46;20.70;;;0.90;;
4992;SDS011;2514;53.524;10.166;2022-12-07T11:13:23;1.80;;;0.80;;
4992;SDS011;2514;53.524;10.166;2022-12-07T11:16:03;0.80;;;0.60;;
4992;SDS011;2514;53.524;10.166;2022-12-07T11:18:55;6.90;;;1.10;;
4992;SDS011;2514;53.524;10.166;2022-12-07T11:21:43;1.00;;;0.50;;
4992;SDS011;2514;53.524;10.166;2022-12-07T11:24:15;3.20;;;1.00;;
4992;SDS011;2514;53.524;10.166;2022-12-07T11:26:50;2.30;;;1.00;;
4992;SDS011;2514;53.524;10.166;2022-12-07T11:29:46;0.90;;;0.70;;
4992;SDS011;2514;53.524;10.166;2022-12-07T11:35:38;5.47;;;0.97;;
4992;SDS011;2514;53.524;10.166;2022-12-07T11:38:22;0.70;;;0.40;;
4992;SDS011;2514;53.524;10.166;2022-12-07T11:41:00;2.00;;;0.80;;
4992;SDS011;2514;53.524;10.166;2022-12-07T11:43:41;2.50;;;0.50;;
4992;SDS011;2514;53.524;10.166;2022-12-07T11:46:19;3.30;;;0.70;;
4992;SDS011;2514;53.524;10.166;2022-12-07T11:48:51;1.00;;;0.90;;
4992;SDS011;2514;53.524;10.166;2022-12-07T11:51:26;3.67;;;1.50;;
4992;SDS011;2514;53.524;10.166;2022-12-07T11:54:00;4.20;;;0.70;;
4992;SDS011;2514;53.524;10.166;2022-12-07T11:56:31;0.85;;;0.55;;
4992;SDS011;2514;53.524;10.166;2022-12-07T11:59:04;0.90;;;0.50;;
4992;SDS011;2514;53.524;10.166;2022-12-07T12:01:42;2.90;;;0.60;;
4992;SDS011;2514;53.524;10.166;2022-12-07T12:04:30;2.15;;;0.90;;
4992;SDS011;2514;53.524;10.166;2022-12-07T12:07:15;4.10;;;1.15;;
4992;SDS011;2514;53.524;10.166;2022-12-07T12:09:49;2.90;;;0.77;;
4992;SDS011;2514;53.524;10.166;2022-12-07T12:12:24;0.80;;;0.57;;
4992;SDS011;2514;53.524;10.166;2022-12-07T12:15:23;3.45;;;0.95;;
4992;SDS011;2514;53.524;10.166;2022-12-07T12:21:08;1.50;;;0.85;;
4992;SDS011;2514;53.524;10.166;2022-12-07T12:23:41;1.00;;;0.90;;
4992;SDS011;2514;53.524;10.166;2022-12-07T12:26:14;2.25;;;0.68;;
4992;SDS011;2514;53.524;10.166;2022-12-07T12:28:49;2.90;;;1.00;;
4992;SDS011;2514;53.524;10.166;2022-12-07T12:31:34;1.90;;;0.80;;
4992;SDS011;2514;53.524;10.166;2022-12-07T12:34:29;0.80;;;0.70;;
4992;SDS011;2514;53.524;10.166;2022-12-07T12:37:13;0.90;;;0.60;;
4992;SDS011;2514;53.524;10.166;2022-12-07T12:46:38;1.07;;;0.43;;
4992;SDS011;2514;53.524;10.166;2022-12-07T12:58:44;1.73;;;0.50;;
4992;SDS011;2514;53.524;10.166;2022-12-07T13:10:40;4.10;;;0.70;;
4992;SDS011;2514;53.524;10.166;2022-12-07T13:13:30;1.17;;;0.70;;
4992;SDS011;2514;53.524;10.166;2022-12-07T13:25:30;2.00;;;1.10;;
4992;SDS011;2514;53.524;10.166;2022-12-07T13:28:09;0.70;;;0.40;;
4992;SDS011;2514;53.524;10.166;2022-12-07T13:30:45;2.60;;;0.70;;
4992;SDS011;2514;53.524;10.166;2022-12-07T13:33:24;1.20;;;0.60;;
4992;SDS011;2514;53.524;10.166;2022-12-07T13:35:55;8.35;;;0.98;;
4992;SDS011;2514;53.524;10.166;2022-12-07T13:38:26;1.33;;;0.80;;
4992;SDS011;2514;53.524;10.166;2022-12-07T13:41:00;2.60;;;0.80;;
4992;SDS011;2514;53.524;10.166;2022-12-07T13:43:43;0.80;;;0.47;;
4992;SDS011;2514;53.524;10.166;2022-12-07T13:46:12;1.20;;;0.90;;
4992;SDS011;2514;53.524;10.166;2022-12-07T13:48:44;0.88;;;0.73;;
4992;SDS011;2514;53.524;10.166;2022-12-07T13:51:17;1.20;;;0.70;;
4992;SDS011;2514;53.524;10.166;2022-12-07T13:53:47;2.20;;;0.50;;
4992;SDS011;2514;53.524;10.166;2022-12-07T13:56:17;1.15;;;0.55;;
4992;SDS011;2514;53.524;10.166;2022-12-07T13:58:44;1.90;;;0.80;;
4992;SDS011;2514;53.524;10.166;2022-12-07T14:01:11;5.63;;;1.02;;
4992;SDS011;2514;53.524;10.166;2022-12-07T14:03:38;2.40;;;1.20;;
4992;SDS011;2514;53.524;10.166;2022-12-07T14:06:14;0.80;;;0.50;;
4992;SDS011;2514;53.524;10.166;2022-12-07T14:08:45;1.10;;;0.70;;
4992;SDS011;2514;53.524;10.166;2022-12-07T14:11:17;2.05;;;0.95;;
4992;SDS011;2514;53.524;10.166;2022-12-07T14:13:56;0.80;;;0.40;;
4992;SDS011;2514;53.524;10.166;2022-12-07T14:16:26;1.20;;;0.80;;
4992;SDS011;2514;53.524;10.166;2022-12-07T14:18:56;0.90;;;0.70;;
4992;SDS011;2514;53.524;10.166;2022-12-07T14:21:26;1.40;;;1.00;;
4992;SDS011;2514;53.524;10.166;2022-12-07T14:24:11;0.80;;;0.50;;
4992;SDS011;2514;53.524;10.166;2022-12-07T14:26:45;0.90;;;0.50;;
4992;SDS011;2514;53.524;10.166;2022-12-07T14:29:19;0.80;;;0.40;;
4992;SDS011;2514;53.524;10.166;2022-12-07T14:31:57;1.00;;;0.60;;
4992;SDS011;2514;53.524;10.166;2022-12-07T14:34:52;0.70;;;0.40;;
4992;SDS011;2514;53.524;10.166;2022-12-07T14:37:28;0.80;;;0.50;;
4992;SDS011;2514;53.524;10.166;2022-12-07T14:39:56;0.90;;;0.60;;
4992;SDS011;2514;53.524;10.166;2022-12-07T14:42:26;1.10;;;0.60;;
4992;SDS011;2514;53.524;10.166;2022-12-07T14:44:55;1.10;;;0.55;;
4992;SDS011;2514;53.524;10.166;2022-12-07T14:47:23;0.88;;;0.60;;
4992;SDS011;2514;53.524;10.166;2022-12-07T14:49:51;0.80;;;0.50;;
4992;SDS011;2514;53.524;10.166;2022-12-07T14:52:19;0.85;;;0.50;;
4992;SDS011;2514;53.524;10.166;2022-12-07T14:54:49;0.80;;;0.60;;
4992;SDS011;2514;53.524;10.166;2022-12-07T14:57:17;0.80;;;0.50;;
4992;SDS011;2514;53.524;10.166;2022-12-07T14:59:45;0.70;;;0.40;;
4992;SDS011;2514;53.524;10.166;2022-12-07T15:02:13;1.00;;;0.50;;
4992;SDS011;2514;53.524;10.166;2022-12-07T15:04:41;0.70;;;0.50;;
4992;SDS011;2514;53.524;10.166;2022-12-07T15:07:10;1.40;;;1.10;;
4992;SDS011;2514;53.524;10.166;2022-12-07T15:09:43;0.70;;;0.40;;
4992;SDS011;2514;53.524;10.166;2022-12-07T15:12:10;0.70;;;0.40;;
4992;SDS011;2514;53.524;10.166;2022-12-07T15:14:37;0.70;;;0.40;;
4992;SDS011;2514;53.524;10.166;2022-12-07T15:17:05;1.02;;;0.45;;
4992;SDS011;2514;53.524;10.166;2022-12-07T15:19:32;0.70;;;0.40;;
4992;SDS011;2514;53.524;10.166;2022-12-07T15:21:59;0.70;;;0.40;;
4992;SDS011;2514;53.524;10.166;2022-12-07T15:24:26;4.90;;;0.50;;
4992;SDS011;2514;53.524;10.166;2022-12-07T15:26:54;1.70;;;0.80;;
4992;SDS011;2514;53.524;10.166;2022-12-07T15:29:21;3.70;;;0.80;;
4992;SDS011;2514;53.524;10.166;2022-12-07T15:31:48;0.70;;;0.40;;
4992;SDS011;2514;53.524;10.166;2022-12-07T15:34:17;1.45;;;1.25;;
4992;SDS011;2514;53.524;10.166;2022-12-07T15:36:44;0.70;;;0.40;;
4992;SDS011;2514;53.524;10.166;2022-12-07T15:39:11;0.80;;;0.50;;
4992;SDS011;2514;53.524;10.166;2022-12-07T15:41:38;0.80;;;0.50;;
4992;SDS011;2514;53.524;10.166;2022-12-07T15:44:05;0.70;;;0.40;;
4992;SDS011;2514;53.524;10.166;2022-12-07T15:46:50;3.60;;;1.30;;
4992;SDS011;2514;53.524;10.166;2022-12-07T15:49:18;0.70;;;0.40;;
4992;SDS011;2514;53.524;10.166;2022-12-07T15:51:46;0.70;;;0.40;;
4992;SDS011;2514;53.524;10.166;2022-12-07T15:54:16;0.80;;;0.60;;
4992;SDS011;2514;53.524;10.166;2022-12-07T15:56:45;3.70;;;0.50;;
4992;SDS011;2514;53.524;10.166;2022-12-07T15:59:13;1.10;;;0.70;;
4992;SDS011;2514;53.524;10.166;2022-12-07T16:01:40;0.70;;;0.40;;
4992;SDS011;2514;53.524;10.166;2022-12-07T16:04:07;0.90;;;0.80;;
4992;SDS011;2514;53.524;10.166;2022-12-07T16:06:35;0.70;;;0.40;;
4992;SDS011;2514;53.524;10.166;2022-12-07T16:09:02;0.70;;;0.40;;
4992;SDS011;2514;53.524;10.166;2022-12-07T16:11:30;0.70;;;0.40;;